Estación de Campanacura
Ultimos registro cada 15 minutos 77
| N° | Estación | Fecha / Hora | Temperatura | Humedad | Lluvia | Velocidad | Dirección | Radiación | Presion |
| 77 | Campanacura | 05-05-2026 19:00 | 14,9 | 31,5 | 0 | 0,5 | 302 | 0,6 | 998,8 |
| 76 | Campanacura | 05-05-2026 18:45 | 14,3 | 28,2 | 0 | 0 | 243 | 0,6 | 998,6 |
| 75 | Campanacura | 05-05-2026 18:30 | 14,3 | 29,8 | 0 | 0 | 240 | 0,6 | 998,7 |
| 74 | Campanacura | 05-05-2026 18:15 | 15 | 39,6 | 0 | 0 | 240 | 0,6 | 998,8 |
| 73 | Campanacura | 05-05-2026 18:00 | 15,7 | 43,2 | 0 | 0 | 240 | 0,6 | 998,5 |
| 72 | Campanacura | 05-05-2026 17:45 | 15,7 | 46,6 | 0 | 0 | 240 | 1,9 | 998,6 |
| 71 | Campanacura | 05-05-2026 17:30 | 16,6 | 52,8 | 0 | 0,5 | 240 | 11,9 | 998,3 |
| 70 | Campanacura | 05-05-2026 17:15 | 17,2 | 56,7 | 0 | 0,5 | 240 | 24,4 | 998,4 |
| 69 | Campanacura | 05-05-2026 17:00 | 18 | 60,2 | 0 | 0,5 | 246 | 50,6 | 998,7 |
| 68 | Campanacura | 05-05-2026 16:45 | 18,4 | 61,1 | 0 | 0 | 270 | 33,1 | 998,5 |
| 67 | Campanacura | 05-05-2026 16:30 | 18,9 | 60,9 | 0 | 0 | 271 | 43,1 | 998,2 |
| 66 | Campanacura | 05-05-2026 16:15 | 19,7 | 60,4 | 0 | 0 | 274 | 59,4 | 998 |
| 65 | Campanacura | 05-05-2026 16:00 | 19,8 | 60,1 | 0 | 0 | 274 | 71,9 | 998 |
| 64 | Campanacura | 05-05-2026 15:45 | 19,8 | 60,8 | 0 | 0,5 | 295 | 118,1 | 997,7 |
| 63 | Campanacura | 05-05-2026 15:30 | 20,7 | 60,7 | 0 | 0,5 | 300 | 233,1 | 997,1 |
| 62 | Campanacura | 05-05-2026 15:15 | 21,5 | 60,4 | 0 | 0 | 296 | 320,6 | 997,2 |
| 61 | Campanacura | 05-05-2026 15:00 | 20,5 | 60,6 | 0 | 0 | 288 | 539,4 | 996,4 |
| 60 | Campanacura | 05-05-2026 14:45 | 20,2 | 60,6 | 0 | 0 | 267 | 263,1 | 996,7 |
| 59 | Campanacura | 05-05-2026 14:30 | 19,5 | 60 | 0 | 0 | 278 | 168,1 | 997,2 |
| 58 | Campanacura | 05-05-2026 14:15 | 19,8 | 59,7 | 0 | 0,5 | 305 | 233,1 | 997,5 |
| 57 | Campanacura | 05-05-2026 14:00 | 19,9 | 60,5 | 0 | 0 | 354 | 250,6 | 996,9 |
| 56 | Campanacura | 05-05-2026 13:45 | 20,7 | 60,4 | 0 | 0 | 20 | 280,6 | 996,8 |
| 55 | Campanacura | 05-05-2026 13:30 | 20,7 | 59,2 | 0 | 0,5 | 32 | 419,4 | 996,4 |
| 54 | Campanacura | 05-05-2026 13:15 | 19,5 | 53,4 | 0 | 0,5 | 44 | 358,1 | 996,6 |
| 53 | Campanacura | 05-05-2026 13:00 | 18,3 | 42 | 0 | 0,5 | 58 | 286,9 | 996,9 |
| 52 | Campanacura | 05-05-2026 12:45 | 18,4 | 35,4 | 0 | 0 | 41 | 238,1 | 997,6 |
| 51 | Campanacura | 05-05-2026 12:30 | 17,3 | 28,5 | 0 | 0 | 8 | 306,9 | 997,7 |
| 50 | Campanacura | 05-05-2026 12:15 | 16,7 | 26,2 | 0 | 0 | 358 | 170,6 | 998,2 |
| 49 | Campanacura | 05-05-2026 12:00 | 16,8 | 24,3 | 0 | 0 | 358 | 169,4 | 998,3 |
| 48 | Campanacura | 05-05-2026 11:45 | 16,8 | 22,9 | 0 | 0 | 358 | 135,6 | 998,1 |
| 47 | Campanacura | 05-05-2026 11:30 | 16,7 | 22,9 | 0 | 0 | 358 | 200,6 | 998,1 |
| 46 | Campanacura | 05-05-2026 11:15 | 16,5 | 17,2 | 0 | 0 | 358 | 241,9 | 998,1 |
| 45 | Campanacura | 05-05-2026 11:00 | 15,7 | 13,4 | 0 | 0 | 358 | 204,4 | 998,1 |
| 44 | Campanacura | 05-05-2026 10:45 | 15,7 | 10,8 | 0 | 0 | 327 | 174,4 | 998,3 |
| 43 | Campanacura | 05-05-2026 10:30 | 15,2 | 11,4 | 0 | 0 | 334 | 281,9 | 998,6 |
| 42 | Campanacura | 05-05-2026 10:15 | 14,5 | 13,2 | 0 | 0,5 | 351 | 233,1 | 998,8 |
| 41 | Campanacura | 05-05-2026 10:00 | 14,6 | 15,4 | 0 | 0 | 45 | 244,4 | 998,9 |
| 40 | Campanacura | 05-05-2026 09:45 | 13,5 | 17,4 | 0 | 0 | 46 | 298,1 | 998,8 |
| 39 | Campanacura | 05-05-2026 09:30 | 12,8 | 17,9 | 0 | 0 | 34 | 89,4 | 999,3 |
| 38 | Campanacura | 05-05-2026 09:15 | 12,7 | 18,3 | 0 | 0 | 38 | 84,4 | 999,2 |
| 37 | Campanacura | 05-05-2026 09:00 | 12,1 | 18,8 | 0 | 0 | 35 | 55,6 | 999,2 |
| 36 | Campanacura | 05-05-2026 08:45 | 11,8 | 19,2 | 0 | 0 | 15 | 60,6 | 999,4 |
| 35 | Campanacura | 05-05-2026 08:30 | 11,2 | 19,7 | 0 | 0 | 285 | 46,9 | 999,3 |
| 34 | Campanacura | 05-05-2026 08:15 | 10,9 | 19,9 | 0 | 0 | 303 | 34,4 | 999,7 |
| 33 | Campanacura | 05-05-2026 08:00 | 10,6 | 20,2 | 0 | 0 | 295 | 33,1 | 999,7 |
| 32 | Campanacura | 05-05-2026 07:45 | 10,4 | 20,3 | 0 | 0 | 295 | 8,1 | 999,7 |
| 31 | Campanacura | 05-05-2026 07:30 | 10,4 | 20,3 | 0 | 0 | 291 | 0,6 | 999,8 |
| 30 | Campanacura | 05-05-2026 07:15 | 10,3 | 20,2 | 0 | 0 | 241 | 0,6 | 1000,1 |
| 29 | Campanacura | 05-05-2026 07:00 | 10,4 | 20,1 | 0 | 0 | 241 | 0,6 | 1000 |
| 28 | Campanacura | 05-05-2026 06:45 | 10,6 | 19,9 | 0 | 0 | 254 | 0,6 | 999,5 |
| 27 | Campanacura | 05-05-2026 06:30 | 10,6 | 19,9 | 0 | 0 | 275 | 0,6 | 1000,5 |
| 26 | Campanacura | 05-05-2026 06:15 | 10,8 | 19,9 | 0 | 0 | 282 | 0,6 | 1000,4 |
| 25 | Campanacura | 05-05-2026 06:00 | 10,7 | 19,7 | 0 | 0 | 234 | 0,6 | 1000,1 |
| 24 | Campanacura | 05-05-2026 05:45 | 10,7 | 19,6 | 0 | 0 | 312 | 0,6 | 1001 |
| 23 | Campanacura | 05-05-2026 05:30 | 10,9 | 19,4 | 0 | 0 | 345 | 0,6 | 999,8 |
| 22 | Campanacura | 05-05-2026 05:15 | 11,1 | 19,3 | 0 | 0 | 205 | 0,6 | 1000,3 |
| 21 | Campanacura | 05-05-2026 05:00 | 11,5 | 18,8 | 0 | 0 | 77 | 0,6 | 999,5 |
| 20 | Campanacura | 05-05-2026 04:45 | 10,7 | 19,5 | 0 | 0 | 314 | 0,6 | 1000 |
| 19 | Campanacura | 05-05-2026 04:30 | 10,7 | 19,3 | 0 | 0 | 15 | 0,6 | 1000,9 |
| 18 | Campanacura | 05-05-2026 04:15 | 10,5 | 19,5 | 0 | 0 | 321 | 0,6 | 999,9 |
| 17 | Campanacura | 05-05-2026 04:00 | 10,7 | 19 | 0 | 0 | 321 | 0,6 | 1000,7 |
| 16 | Campanacura | 05-05-2026 03:45 | 10,7 | 18,9 | 0 | 0 | 321 | 0,6 | 1000,7 |
| 15 | Campanacura | 05-05-2026 03:30 | 10,6 | 19,1 | 0 | 0 | 313 | 0,6 | 1000,4 |
| 14 | Campanacura | 05-05-2026 03:15 | 10,4 | 19,1 | 0 | 0 | 309 | 0,6 | 1000,5 |
| 13 | Campanacura | 05-05-2026 03:00 | 10,3 | 19,2 | 0 | 0 | 309 | 0,6 | 1000,7 |
| 12 | Campanacura | 05-05-2026 02:45 | 10,2 | 19 | 0 | 0 | 309 | 0,6 | 1000,6 |
| 11 | Campanacura | 05-05-2026 02:30 | 10,1 | 19,1 | 0 | 0 | 309 | 0,6 | 1001 |
| 10 | Campanacura | 05-05-2026 02:15 | 10,1 | 18,9 | 0 | 0 | 309 | 0,6 | 1000,6 |
| 9 | Campanacura | 05-05-2026 02:00 | 10,3 | 18,5 | 0 | 0 | 309 | 0,6 | 1000,7 |
| 8 | Campanacura | 05-05-2026 01:45 | 10,6 | 18,6 | 0 | 0 | 309 | 0,6 | 1000,5 |
| 7 | Campanacura | 05-05-2026 01:30 | 10,3 | 18,4 | 0 | 0 | 307 | 0,6 | 1000,9 |
| 6 | Campanacura | 05-05-2026 01:15 | 10,6 | 18,2 | 0 | 0 | 307 | 0,6 | 1001 |
| 5 | Campanacura | 05-05-2026 01:00 | 10,8 | 18 | 0 | 0 | 307 | 0,6 | 1001 |
| 4 | Campanacura | 05-05-2026 00:45 | 10,7 | 18 | 0 | 0 | 307 | 0,6 | 1001,2 |
| 3 | Campanacura | 05-05-2026 00:30 | 10,7 | 18 | 0 | 0 | 307 | 0,6 | 1001,4 |
| 2 | Campanacura | 05-05-2026 00:15 | 10,5 | 18,2 | 0 | 0 | 307 | 0,6 | 1001,5 |
| 1 | Campanacura | 05-05-2026 00:00 | 10,5 | 18 | 0 | 0 | 307 | 0,6 | 1001,5 |